Paris, TX

6:19 AM CDT on September 15, 2014 (GMT -0500)
Stamper Municipal | Change Station
CLOSE
Current Station
Airport
Location: Hugo,
Elevation: 571 ft
Nearby Weather Stations

Elev 571 ft 34.03 °N, 95.54 °W | Updated 24 minutes ago

Overcast
Overcast
68 °F
Feels Like 68 °F
N
4
Wind Variable Wind from ESE

Today
High -- | Low -- °F
--% Chance of Precip.
Yesterday
High -- | Low -- °F
Precip. -- in
7:05 AM 7:28 PM
Waning Gibbous, 56% visible
Pressure 30.15 in
Visibility 10.0 miles
Clouds Mostly Cloudy 11000 ft
Dew Point 64 °F
Humidity 88%
Rainfall 0.00 in
Snow Depth Not available.
UV 0 out of 12
Pollen 10.20 out of 12
Air Quality Not available.
Flu Activity Not available.
METAR KHHW 151055Z AUTO 12003KT 10SM BKN110 20/18 A3015 RMK AO2 T02010180

More Conditions Fewer Conditions

Pressure 30.15 in
Visibility 10.0 miles
Clouds Mostly Cloudy 11000 ft
Dew Point 64 °F
Humidity 88%
Rainfall 0.00 in
Snow Depth Not available.
UV 0 out of 12
Pollen 10.20 out of 12
Air Quality Not available.
Flu Activity Not available.
METAR KHHW 151055Z AUTO 12003KT 10SM BKN110 20/18 A3015 RMK AO2 T02010180

More Conditions Fewer Conditions

Nowcast | as of 4:19 am CDT on September 15, 2014

Widely scattered showers will continue to move northeast at 25 mph across parts of North Texas early this morning. Through 7 am...the best chance for showers will be north of a line from Comanche to Fort Worth to Paris. Some areas that may be affected by a brief rain shower include Mineral Wells...Denton...and Sherman. Rainfall amounts will average a few hundredths of an inch or less. Across the rest of North Texas...skies will remain partly to mostly cloudy with no rain expected. Temperatures will slowly fall into the 60s in most areas by sunrise.

×

10-Day Weather Forecast

Almanac

Astronomy

Sep. 15, 2014 Rise Set
Actual Time 7:05 AM CDT 7:28 PM CDT
Civil Twilight 6:40 AM CDT 7:53 PM CDT
Nautical Twilight 6:11 AM CDT 8:22 PM CDT
Astronomical Twilight 5:41 AM CDT 8:52 PM CDT
Moon No Moon Rise 1:49 PM CDT
Length of Visible Light 13h 12m
Length of Day
12h 23m
Tomorrow will be 2m 4s shorter.
Waning Gibbous, 56% of the Moon is Illuminated
Today
Waning Gibbous
Sep 15
Last Quarter
Sep 24
New
Oct 1
First Quarter
Oct 8
Full

Today's Extremes

State Highs State Lows

Community

WunderPhotos

Upload Photos

1,753,429 photos uploaded!

Nearby

Snow Depth

Station Depth Elevation
No new snow has been reported.

Earthquake Activity

City Distance Mag. Time & Date
Arlington, Texas 111 miles 2.5 6:03 PM CDT
2014-09-12
Minimum magnitude displayed is 2.5.

Coastal Water Temperatures

Place Temperature
No Stations Reporting

Nearby Weather Stations